sensor_id;sensor_type;location;lat;lon;timestamp;P1;durP1;ratioP1;P2;durP2;ratioP2
29700;SDS011;57917;51.380;-0.176;2024-01-27T00:03:46;3.13;;;0.55;;
29700;SDS011;57917;51.380;-0.176;2024-01-27T00:09:34;1.08;;;0.90;;
29700;SDS011;57917;51.380;-0.176;2024-01-27T00:15:23;0.98;;;0.98;;
29700;SDS011;57917;51.380;-0.176;2024-01-27T00:21:10;10.23;;;0.73;;
29700;SDS011;57917;51.380;-0.176;2024-01-27T00:27:05;5.15;;;1.00;;
29700;SDS011;57917;51.380;-0.176;2024-01-27T00:33:42;4.47;;;0.50;;
29700;SDS011;57917;51.380;-0.176;2024-01-27T00:39:39;3.30;;;1.48;;
29700;SDS011;57917;51.380;-0.176;2024-01-27T00:45:29;6.53;;;2.83;;
29700;SDS011;57917;51.380;-0.176;2024-01-27T00:51:17;6.45;;;2.25;;
29700;SDS011;57917;51.380;-0.176;2024-01-27T00:57:04;10.40;;;3.45;;
29700;SDS011;57917;51.380;-0.176;2024-01-27T01:02:58;10.23;;;3.08;;
29700;SDS011;57917;51.380;-0.176;2024-01-27T01:08:45;15.95;;;5.55;;
29700;SDS011;57917;51.380;-0.176;2024-01-27T01:14:34;23.08;;;6.63;;
29700;SDS011;57917;51.380;-0.176;2024-01-27T01:20:22;14.45;;;4.38;;
29700;SDS011;57917;51.380;-0.176;2024-01-27T01:26:09;178.73;;;55.25;;
29700;SDS011;57917;51.380;-0.176;2024-01-27T01:32:00;288.42;;;71.15;;
29700;SDS011;57917;51.380;-0.176;2024-01-27T01:37:49;142.68;;;54.25;;
29700;SDS011;57917;51.380;-0.176;2024-01-27T01:43:36;241.30;;;64.32;;
29700;SDS011;57917;51.380;-0.176;2024-01-27T01:49:31;6.25;;;2.97;;
29700;SDS011;57917;51.380;-0.176;2024-01-27T01:55:18;54.30;;;18.65;;
29700;SDS011;57917;51.380;-0.176;2024-01-27T02:01:08;8.88;;;3.20;;
29700;SDS011;57917;51.380;-0.176;2024-01-27T02:06:58;5.22;;;1.73;;
29700;SDS011;57917;51.380;-0.176;2024-01-27T02:12:46;0.63;;;0.63;;
29700;SDS011;57917;51.380;-0.176;2024-01-27T02:18:33;0.40;;;0.40;;
29700;SDS011;57917;51.380;-0.176;2024-01-27T02:24:20;20.92;;;2.85;;
29700;SDS011;57917;51.380;-0.176;2024-01-27T02:30:07;2.30;;;1.45;;
29700;SDS011;57917;51.380;-0.176;2024-01-27T02:35:54;7.47;;;1.10;;
29700;SDS011;57917;51.380;-0.176;2024-01-27T02:41:41;1.10;;;0.85;;
29700;SDS011;57917;51.380;-0.176;2024-01-27T02:47:27;0.40;;;0.40;;
29700;SDS011;57917;51.380;-0.176;2024-01-27T02:53:14;21.30;;;1.17;;
29700;SDS011;57917;51.380;-0.176;2024-01-27T02:59:04;0.20;;;0.20;;
29700;SDS011;57917;51.380;-0.176;2024-01-27T03:04:51;0.30;;;0.30;;
29700;SDS011;57917;51.380;-0.176;2024-01-27T03:10:38;1.00;;;0.52;;
29700;SDS011;57917;51.380;-0.176;2024-01-27T03:16:25;0.20;;;0.20;;
29700;SDS011;57917;51.380;-0.176;2024-01-27T03:22:12;8.98;;;1.45;;
29700;SDS011;57917;51.380;-0.176;2024-01-27T03:27:58;0.20;;;0.20;;
29700;SDS011;57917;51.380;-0.176;2024-01-27T03:33:47;15.65;;;2.17;;
29700;SDS011;57917;51.380;-0.176;2024-01-27T03:39:34;0.43;;;0.43;;
29700;SDS011;57917;51.380;-0.176;2024-01-27T03:45:21;0.40;;;0.40;;
29700;SDS011;57917;51.380;-0.176;2024-01-27T03:51:08;8.57;;;0.52;;
29700;SDS011;57917;51.380;-0.176;2024-01-27T03:56:55;4.07;;;1.48;;
29700;SDS011;57917;51.380;-0.176;2024-01-27T04:02:42;0.52;;;0.52;;
29700;SDS011;57917;51.380;-0.176;2024-01-27T04:08:29;0.68;;;0.63;;
29700;SDS011;57917;51.380;-0.176;2024-01-27T04:14:17;15.10;;;0.47;;
29700;SDS011;57917;51.380;-0.176;2024-01-27T04:20:04;0.50;;;0.43;;
29700;SDS011;57917;51.380;-0.176;2024-01-27T04:25:51;0.28;;;0.28;;
29700;SDS011;57917;51.380;-0.176;2024-01-27T04:31:41;5.63;;;0.52;;
29700;SDS011;57917;51.380;-0.176;2024-01-27T04:37:28;13.35;;;1.75;;
29700;SDS011;57917;51.380;-0.176;2024-01-27T04:43:15;6.25;;;1.13;;
29700;SDS011;57917;51.380;-0.176;2024-01-27T04:49:03;0.30;;;0.30;;
29700;SDS011;57917;51.380;-0.176;2024-01-27T04:54:49;3.75;;;1.38;;
29700;SDS011;57917;51.380;-0.176;2024-01-27T05:00:36;2.50;;;0.90;;
29700;SDS011;57917;51.380;-0.176;2024-01-27T05:06:23;0.68;;;0.45;;
29700;SDS011;57917;51.380;-0.176;2024-01-27T05:12:13;0.30;;;0.30;;
29700;SDS011;57917;51.380;-0.176;2024-01-27T05:17:59;3.25;;;0.98;;
29700;SDS011;57917;51.380;-0.176;2024-01-27T05:23:46;0.50;;;0.50;;
29700;SDS011;57917;51.380;-0.176;2024-01-27T05:29:33;0.30;;;0.30;;
29700;SDS011;57917;51.380;-0.176;2024-01-27T05:35:20;0.20;;;0.20;;
29700;SDS011;57917;51.380;-0.176;2024-01-27T05:41:07;4.13;;;0.93;;
29700;SDS011;57917;51.380;-0.176;2024-01-27T05:46:54;0.63;;;0.63;;
29700;SDS011;57917;51.380;-0.176;2024-01-27T05:52:41;2.83;;;0.98;;
29700;SDS011;57917;51.380;-0.176;2024-01-27T05:58:28;0.25;;;0.25;;
29700;SDS011;57917;51.380;-0.176;2024-01-27T06:04:16;0.40;;;0.40;;
29700;SDS011;57917;51.380;-0.176;2024-01-27T06:10:03;1.60;;;1.50;;
29700;SDS011;57917;51.380;-0.176;2024-01-27T06:15:50;30.50;;;4.78;;
29700;SDS011;57917;51.380;-0.176;2024-01-27T06:21:37;119.35;;;23.88;;
29700;SDS011;57917;51.380;-0.176;2024-01-27T06:27:27;15.93;;;3.03;;
29700;SDS011;57917;51.380;-0.176;2024-01-27T06:33:14;4.55;;;0.95;;
29700;SDS011;57917;51.380;-0.176;2024-01-27T06:39:01;0.40;;;0.40;;
29700;SDS011;57917;51.380;-0.176;2024-01-27T06:44:51;0.20;;;0.20;;
29700;SDS011;57917;51.380;-0.176;2024-01-27T06:50:40;0.20;;;0.20;;
29700;SDS011;57917;51.380;-0.176;2024-01-27T06:56:27;0.60;;;0.60;;
29700;SDS011;57917;51.380;-0.176;2024-01-27T07:02:27;1.45;;;1.27;;
29700;SDS011;57917;51.380;-0.176;2024-01-27T07:08:15;8.32;;;2.85;;
29700;SDS011;57917;51.380;-0.176;2024-01-27T07:14:03;111.38;;;21.55;;
29700;SDS011;57917;51.380;-0.176;2024-01-27T07:19:51;17.08;;;6.10;;
29700;SDS011;57917;51.380;-0.176;2024-01-27T07:25:38;285.38;;;63.63;;
29700;SDS011;57917;51.380;-0.176;2024-01-27T07:31:25;148.18;;;48.75;;
29700;SDS011;57917;51.380;-0.176;2024-01-27T07:37:15;231.95;;;58.30;;
29700;SDS011;57917;51.380;-0.176;2024-01-27T07:43:02;204.18;;;52.90;;
29700;SDS011;57917;51.380;-0.176;2024-01-27T07:48:50;22.83;;;9.20;;
29700;SDS011;57917;51.380;-0.176;2024-01-27T07:54:38;54.65;;;15.57;;
29700;SDS011;57917;51.380;-0.176;2024-01-27T08:00:27;29.02;;;11.13;;
29700;SDS011;57917;51.380;-0.176;2024-01-27T08:06:30;79.03;;;23.25;;
29700;SDS011;57917;51.380;-0.176;2024-01-27T08:12:18;68.93;;;34.05;;
29700;SDS011;57917;51.380;-0.176;2024-01-27T08:18:04;58.80;;;31.75;;
29700;SDS011;57917;51.380;-0.176;2024-01-27T08:23:52;19.08;;;9.88;;
29700;SDS011;57917;51.380;-0.176;2024-01-27T08:29:39;37.72;;;12.48;;
29700;SDS011;57917;51.380;-0.176;2024-01-27T08:35:27;15.32;;;5.45;;
29700;SDS011;57917;51.380;-0.176;2024-01-27T08:41:14;13.95;;;4.32;;
29700;SDS011;57917;51.380;-0.176;2024-01-27T08:47:00;13.07;;;4.75;;
29700;SDS011;57917;51.380;-0.176;2024-01-27T08:52:50;12.75;;;4.13;;
29700;SDS011;57917;51.380;-0.176;2024-01-27T08:58:37;43.97;;;20.63;;
29700;SDS011;57917;51.380;-0.176;2024-01-27T09:04:28;38.10;;;17.92;;
29700;SDS011;57917;51.380;-0.176;2024-01-27T09:10:15;9.18;;;2.65;;
29700;SDS011;57917;51.380;-0.176;2024-01-27T09:16:02;56.38;;;18.90;;
29700;SDS011;57917;51.380;-0.176;2024-01-27T09:21:52;59.58;;;24.88;;
29700;SDS011;57917;51.380;-0.176;2024-01-27T09:27:39;28.20;;;13.82;;
29700;SDS011;57917;51.380;-0.176;2024-01-27T09:33:28;29.73;;;14.10;;
29700;SDS011;57917;51.380;-0.176;2024-01-27T09:39:16;19.13;;;8.57;;
29700;SDS011;57917;51.380;-0.176;2024-01-27T09:45:04;20.10;;;8.27;;
29700;SDS011;57917;51.380;-0.176;2024-01-27T09:50:59;11.88;;;3.28;;
29700;SDS011;57917;51.380;-0.176;2024-01-27T09:56:49;5.70;;;2.55;;
29700;SDS011;57917;51.380;-0.176;2024-01-27T10:02:41;1.23;;;0.95;;
29700;SDS011;57917;51.380;-0.176;2024-01-27T10:08:32;13.98;;;3.85;;
29700;SDS011;57917;51.380;-0.176;2024-01-27T10:14:46;1.92;;;1.15;;
29700;SDS011;57917;51.380;-0.176;2024-01-27T10:20:35;2.28;;;0.95;;
29700;SDS011;57917;51.380;-0.176;2024-01-27T10:26:23;3.20;;;0.75;;
29700;SDS011;57917;51.380;-0.176;2024-01-27T10:32:21;29.88;;;11.13;;
29700;SDS011;57917;51.380;-0.176;2024-01-27T10:38:13;10.88;;;3.42;;
29700;SDS011;57917;51.380;-0.176;2024-01-27T10:44:00;13.35;;;5.35;;
29700;SDS011;57917;51.380;-0.176;2024-01-27T10:49:48;18.50;;;11.27;;
29700;SDS011;57917;51.380;-0.176;2024-01-27T10:55:36;23.73;;;15.10;;
29700;SDS011;57917;51.380;-0.176;2024-01-27T11:01:24;16.33;;;9.13;;
29700;SDS011;57917;51.380;-0.176;2024-01-27T11:07:16;26.83;;;17.33;;
29700;SDS011;57917;51.380;-0.176;2024-01-27T11:13:04;10.73;;;4.65;;
29700;SDS011;57917;51.380;-0.176;2024-01-27T11:18:51;27.85;;;3.30;;
29700;SDS011;57917;51.380;-0.176;2024-01-27T11:24:39;6.32;;;2.38;;
29700;SDS011;57917;51.380;-0.176;2024-01-27T11:30:32;8.82;;;3.67;;
29700;SDS011;57917;51.380;-0.176;2024-01-27T11:36:32;9.23;;;3.22;;
29700;SDS011;57917;51.380;-0.176;2024-01-27T11:43:01;14.13;;;3.80;;
29700;SDS011;57917;51.380;-0.176;2024-01-27T11:48:56;14.02;;;3.15;;
29700;SDS011;57917;51.380;-0.176;2024-01-27T12:01:40;0.98;;;0.93;;
29700;SDS011;57917;51.380;-0.176;2024-01-27T12:07:41;1.17;;;0.85;;
29700;SDS011;57917;51.380;-0.176;2024-01-27T12:13:28;2.55;;;1.08;;
29700;SDS011;57917;51.380;-0.176;2024-01-27T12:19:15;6.75;;;1.20;;
29700;SDS011;57917;51.380;-0.176;2024-01-27T12:25:08;14.93;;;1.08;;
29700;SDS011;57917;51.380;-0.176;2024-01-27T12:31:01;2.67;;;1.60;;
29700;SDS011;57917;51.380;-0.176;2024-01-27T12:36:53;1.02;;;0.88;;
29700;SDS011;57917;51.380;-0.176;2024-01-27T12:42:47;20.73;;;1.42;;
29700;SDS011;57917;51.380;-0.176;2024-01-27T12:49:25;12.75;;;2.88;;
29700;SDS011;57917;51.380;-0.176;2024-01-27T12:55:14;3.63;;;1.45;;
29700;SDS011;57917;51.380;-0.176;2024-01-27T13:01:02;1.70;;;1.45;;
29700;SDS011;57917;51.380;-0.176;2024-01-27T13:06:58;24.05;;;3.28;;
29700;SDS011;57917;51.380;-0.176;2024-01-27T13:12:50;6.78;;;2.10;;
29700;SDS011;57917;51.380;-0.176;2024-01-27T13:18:37;0.75;;;0.50;;
29700;SDS011;57917;51.380;-0.176;2024-01-27T13:24:28;9.63;;;1.40;;
29700;SDS011;57917;51.380;-0.176;2024-01-27T13:30:16;3.67;;;1.27;;
29700;SDS011;57917;51.380;-0.176;2024-01-27T13:36:06;5.00;;;1.95;;
29700;SDS011;57917;51.380;-0.176;2024-01-27T13:41:56;1.08;;;0.82;;
29700;SDS011;57917;51.380;-0.176;2024-01-27T13:47:43;1.38;;;1.27;;
29700;SDS011;57917;51.380;-0.176;2024-01-27T13:53:31;1.98;;;1.25;;
29700;SDS011;57917;51.380;-0.176;2024-01-27T13:59:32;0.75;;;0.75;;
29700;SDS011;57917;51.380;-0.176;2024-01-27T14:05:20;12.95;;;1.85;;
29700;SDS011;57917;51.380;-0.176;2024-01-27T14:11:09;9.40;;;0.98;;
29700;SDS011;57917;51.380;-0.176;2024-01-27T14:16:56;6.03;;;1.83;;
29700;SDS011;57917;51.380;-0.176;2024-01-27T14:22:53;1.50;;;0.95;;
29700;SDS011;57917;51.380;-0.176;2024-01-27T14:28:41;2.60;;;1.15;;
29700;SDS011;57917;51.380;-0.176;2024-01-27T14:34:28;0.95;;;0.80;;
29700;SDS011;57917;51.380;-0.176;2024-01-27T14:40:15;5.68;;;0.75;;
29700;SDS011;57917;51.380;-0.176;2024-01-27T14:46:05;0.93;;;0.88;;
29700;SDS011;57917;51.380;-0.176;2024-01-27T14:51:54;6.15;;;2.33;;
29700;SDS011;57917;51.380;-0.176;2024-01-27T14:57:41;7.38;;;1.75;;
29700;SDS011;57917;51.380;-0.176;2024-01-27T15:03:34;1.27;;;0.40;;
29700;SDS011;57917;51.380;-0.176;2024-01-27T15:09:23;14.48;;;1.63;;
29700;SDS011;57917;51.380;-0.176;2024-01-27T15:15:10;5.05;;;0.85;;
29700;SDS011;57917;51.380;-0.176;2024-01-27T15:20:59;5.28;;;1.90;;
29700;SDS011;57917;51.380;-0.176;2024-01-27T15:26:46;2.47;;;0.98;;
29700;SDS011;57917;51.380;-0.176;2024-01-27T15:32:32;1.05;;;0.80;;
29700;SDS011;57917;51.380;-0.176;2024-01-27T15:38:19;0.57;;;0.43;;
29700;SDS011;57917;51.380;-0.176;2024-01-27T15:44:07;11.80;;;1.75;;
29700;SDS011;57917;51.380;-0.176;2024-01-27T15:49:54;36.00;;;1.35;;
29700;SDS011;57917;51.380;-0.176;2024-01-27T15:55:49;5.20;;;1.42;;
29700;SDS011;57917;51.380;-0.176;2024-01-27T16:01:36;4.95;;;1.23;;
29700;SDS011;57917;51.380;-0.176;2024-01-27T16:07:23;5.72;;;2.28;;
29700;SDS011;57917;51.380;-0.176;2024-01-27T16:13:12;1.20;;;1.10;;
29700;SDS011;57917;51.380;-0.176;2024-01-27T16:18:58;1.98;;;1.30;;
29700;SDS011;57917;51.380;-0.176;2024-01-27T16:24:45;9.52;;;1.33;;
29700;SDS011;57917;51.380;-0.176;2024-01-27T16:30:35;5.03;;;3.17;;
29700;SDS011;57917;51.380;-0.176;2024-01-27T16:36:33;4.07;;;1.60;;
29700;SDS011;57917;51.380;-0.176;2024-01-27T16:42:44;6.75;;;1.55;;
29700;SDS011;57917;51.380;-0.176;2024-01-27T16:48:37;2.10;;;1.15;;
29700;SDS011;57917;51.380;-0.176;2024-01-27T16:54:26;2.20;;;0.95;;
29700;SDS011;57917;51.380;-0.176;2024-01-27T17:00:13;1.30;;;1.17;;
29700;SDS011;57917;51.380;-0.176;2024-01-27T17:06:01;5.05;;;2.25;;
29700;SDS011;57917;51.380;-0.176;2024-01-27T17:11:48;1.13;;;0.60;;
29700;SDS011;57917;51.380;-0.176;2024-01-27T17:17:35;1.40;;;0.82;;
29700;SDS011;57917;51.380;-0.176;2024-01-27T17:23:21;4.75;;;2.33;;
29700;SDS011;57917;51.380;-0.176;2024-01-27T17:29:08;2.50;;;1.58;;
29700;SDS011;57917;51.380;-0.176;2024-01-27T17:34:55;7.05;;;1.23;;
29700;SDS011;57917;51.380;-0.176;2024-01-27T17:40:58;3.33;;;1.55;;
29700;SDS011;57917;51.380;-0.176;2024-01-27T17:46:45;3.60;;;1.23;;
29700;SDS011;57917;51.380;-0.176;2024-01-27T17:52:32;3.70;;;0.90;;
29700;SDS011;57917;51.380;-0.176;2024-01-27T17:58:19;12.07;;;3.78;;
29700;SDS011;57917;51.380;-0.176;2024-01-27T18:04:06;0.47;;;0.47;;
29700;SDS011;57917;51.380;-0.176;2024-01-27T18:09:54;3.33;;;1.63;;
29700;SDS011;57917;51.380;-0.176;2024-01-27T18:15:41;4.85;;;1.98;;
29700;SDS011;57917;51.380;-0.176;2024-01-27T18:21:28;0.93;;;0.93;;
29700;SDS011;57917;51.380;-0.176;2024-01-27T18:27:17;5.00;;;0.95;;
29700;SDS011;57917;51.380;-0.176;2024-01-27T18:33:06;0.57;;;0.50;;
29700;SDS011;57917;51.380;-0.176;2024-01-27T18:38:54;1.33;;;1.23;;
29700;SDS011;57917;51.380;-0.176;2024-01-27T18:44:47;0.80;;;0.80;;
29700;SDS011;57917;51.380;-0.176;2024-01-27T18:50:36;5.82;;;1.52;;
29700;SDS011;57917;51.380;-0.176;2024-01-27T18:56:23;1.10;;;1.05;;
29700;SDS011;57917;51.380;-0.176;2024-01-27T19:02:13;3.38;;;1.50;;
29700;SDS011;57917;51.380;-0.176;2024-01-27T19:08:04;6.90;;;1.42;;
29700;SDS011;57917;51.380;-0.176;2024-01-27T19:13:51;4.30;;;1.20;;
29700;SDS011;57917;51.380;-0.176;2024-01-27T19:19:41;8.43;;;1.23;;
29700;SDS011;57917;51.380;-0.176;2024-01-27T19:25:34;9.13;;;1.17;;
29700;SDS011;57917;51.380;-0.176;2024-01-27T19:31:21;2.33;;;1.40;;
29700;SDS011;57917;51.380;-0.176;2024-01-27T19:37:08;2.20;;;1.13;;
29700;SDS011;57917;51.380;-0.176;2024-01-27T19:42:55;1.95;;;1.15;;
29700;SDS011;57917;51.380;-0.176;2024-01-27T19:48:42;17.15;;;2.53;;
29700;SDS011;57917;51.380;-0.176;2024-01-27T19:54:39;2.45;;;1.60;;
29700;SDS011;57917;51.380;-0.176;2024-01-27T20:00:27;17.98;;;2.45;;
29700;SDS011;57917;51.380;-0.176;2024-01-27T20:06:17;3.85;;;1.10;;
29700;SDS011;57917;51.380;-0.176;2024-01-27T20:12:04;2.33;;;1.55;;
29700;SDS011;57917;51.380;-0.176;2024-01-27T20:17:51;1.08;;;0.98;;
29700;SDS011;57917;51.380;-0.176;2024-01-27T20:23:38;10.85;;;1.55;;
29700;SDS011;57917;51.380;-0.176;2024-01-27T20:29:26;3.72;;;1.92;;
29700;SDS011;57917;51.380;-0.176;2024-01-27T20:35:15;4.32;;;1.77;;
29700;SDS011;57917;51.380;-0.176;2024-01-27T20:41:21;0.88;;;0.75;;
29700;SDS011;57917;51.380;-0.176;2024-01-27T20:47:09;3.13;;;1.05;;
29700;SDS011;57917;51.380;-0.176;2024-01-27T20:53:10;1.48;;;1.38;;
29700;SDS011;57917;51.380;-0.176;2024-01-27T20:58:56;8.52;;;2.88;;
29700;SDS011;57917;51.380;-0.176;2024-01-27T21:04:43;11.25;;;2.35;;
29700;SDS011;57917;51.380;-0.176;2024-01-27T21:10:33;1.33;;;1.17;;
29700;SDS011;57917;51.380;-0.176;2024-01-27T21:16:19;8.93;;;1.73;;
29700;SDS011;57917;51.380;-0.176;2024-01-27T21:22:07;0.73;;;0.70;;
29700;SDS011;57917;51.380;-0.176;2024-01-27T21:27:54;8.30;;;1.95;;
29700;SDS011;57917;51.380;-0.176;2024-01-27T21:33:44;0.98;;;0.50;;
29700;SDS011;57917;51.380;-0.176;2024-01-27T21:39:31;2.60;;;1.98;;
29700;SDS011;57917;51.380;-0.176;2024-01-27T21:45:31;0.65;;;0.65;;
29700;SDS011;57917;51.380;-0.176;2024-01-27T21:51:22;2.70;;;1.60;;
29700;SDS011;57917;51.380;-0.176;2024-01-27T21:57:10;1.45;;;1.15;;
29700;SDS011;57917;51.380;-0.176;2024-01-27T22:03:00;3.63;;;1.95;;
29700;SDS011;57917;51.380;-0.176;2024-01-27T22:08:48;13.05;;;1.13;;
29700;SDS011;57917;51.380;-0.176;2024-01-27T22:14:35;3.83;;;2.58;;
29700;SDS011;57917;51.380;-0.176;2024-01-27T22:20:22;3.28;;;1.75;;
29700;SDS011;57917;51.380;-0.176;2024-01-27T22:26:09;2.83;;;1.10;;
29700;SDS011;57917;51.380;-0.176;2024-01-27T22:31:57;7.30;;;2.30;;
29700;SDS011;57917;51.380;-0.176;2024-01-27T22:37:44;1.05;;;0.82;;
29700;SDS011;57917;51.380;-0.176;2024-01-27T22:43:31;4.68;;;0.52;;
29700;SDS011;57917;51.380;-0.176;2024-01-27T22:49:21;1.23;;;0.65;;
29700;SDS011;57917;51.380;-0.176;2024-01-27T22:55:15;2.65;;;1.55;;
29700;SDS011;57917;51.380;-0.176;2024-01-27T23:01:02;1.85;;;1.00;;
29700;SDS011;57917;51.380;-0.176;2024-01-27T23:06:54;1.27;;;1.17;;
29700;SDS011;57917;51.380;-0.176;2024-01-27T23:12:41;11.95;;;3.72;;
29700;SDS011;57917;51.380;-0.176;2024-01-27T23:18:38;1.35;;;1.02;;
29700;SDS011;57917;51.380;-0.176;2024-01-27T23:24:26;0.30;;;0.30;;
29700;SDS011;57917;51.380;-0.176;2024-01-27T23:30:22;4.85;;;1.23;;
29700;SDS011;57917;51.380;-0.176;2024-01-27T23:36:13;2.27;;;0.97;;
29700;SDS011;57917;51.380;-0.176;2024-01-27T23:42:07;1.17;;;0.65;;
29700;SDS011;57917;51.380;-0.176;2024-01-27T23:47:54;0.60;;;0.60;;
29700;SDS011;57917;51.380;-0.176;2024-01-27T23:53:41;1.58;;;1.48;;
